Time;durP1;ratioP1;P1;durP2;ratioP2;P2;SDS_P1;SDS_P2;PMS_P1;PMS_P2;Temp;Humidity;BMP_temperature;BMP_pressure;BME280_temperature;BME280_humidity;BME280_pressure;Samples;Min_cycle;Max_cycle;Signal;HPM_P1;HPM_P2
2023/06/19 00:00:17;;;;;;;6.63;6.17;;;;;;;21.32;79.59;99300.19;5115167;28;20628;-73
2023/06/19 00:02:44;;;;;;;6.37;6.00;;;;;;;21.29;79.85;99298.00;5115376;28;20540;-72
2023/06/19 00:05:11;;;;;;;6.53;6.03;;;;;;;21.26;79.91;99303.94;5114963;28;20701;-73
2023/06/19 00:07:38;;;;;;;6.47;6.03;;;;;;;21.30;79.68;99313.13;5115540;28;20191;-73
2023/06/19 00:10:06;;;;;;;6.77;6.13;;;;;;;21.29;79.94;99300.72;5115339;28;20251;-73
2023/06/19 00:12:34;;;;;;;6.13;5.77;;;;;;;21.35;79.42;99299.63;5115113;28;20255;-72
2023/06/19 00:15:01;;;;;;;6.30;5.77;;;;;;;21.26;79.71;99298.53;5114973;28;20626;-73
2023/06/19 00:17:28;;;;;;;6.70;6.30;;;;;;;21.22;80.12;99300.16;5115274;28;20251;-72
2023/06/19 00:19:55;;;;;;;7.10;6.50;;;;;;;21.20;80.05;99304.22;5115310;28;20263;-72
2023/06/19 00:22:22;;;;;;;6.43;5.97;;;;;;;21.16;80.53;99306.66;5114906;28;20247;-72
2023/06/19 00:24:48;;;;;;;6.57;6.17;;;;;;;21.15;80.24;99313.13;5115156;28;20275;-72
2023/06/19 00:27:15;;;;;;;6.23;5.70;;;;;;;21.11;80.36;99317.44;5114828;28;20690;-72
2023/06/19 00:29:43;;;;;;;7.53;6.70;;;;;;;21.08;80.30;99311.75;5115199;28;20247;-72
2023/06/19 00:32:10;;;;;;;19.90;7.50;;;;;;;21.09;80.36;99316.91;5114559;28;20222;-73
2023/06/19 00:34:37;;;;;;;12.70;7.33;;;;;;;21.13;79.97;99309.88;5114927;28;20191;-72
2023/06/19 00:37:05;;;;;;;6.87;6.37;;;;;;;21.04;80.13;99316.91;5114914;28;20281;-73
2023/06/19 00:39:32;;;;;;;6.43;5.93;;;;;;;20.80;80.28;99280.63;5114836;28;20190;-72
2023/06/19 00:41:59;;;;;;;6.27;5.93;;;;;;;21.00;80.12;99312.28;5114521;28;20680;-72
2023/06/19 00:44:26;;;;;;;6.20;5.80;;;;;;;20.95;80.46;99320.38;5114654;28;20198;-72
2023/06/19 00:46:58;;;;;;;6.17;5.80;;;;;;;20.95;80.46;99315.00;5114471;28;20186;-72
2023/06/19 00:49:26;;;;;;;5.70;5.40;;;;;;;20.61;80.55;99274.09;5114670;28;20182;-73
2023/06/19 00:51:53;;;;;;;5.97;5.67;;;;;;;20.90;81.03;99310.34;5114867;28;20240;-72
2023/06/19 00:54:21;;;;;;;6.40;5.80;;;;;;;20.85;80.65;99315.75;5114431;28;20251;-73
2023/06/19 00:56:48;;;;;;;6.47;6.07;;;;;;;20.79;80.79;99318.69;5114688;28;20251;-72
2023/06/19 00:59:18;;;;;;;6.50;6.00;;;;;;;20.83;80.56;99314.38;5114390;28;20198;-73
2023/06/19 01:01:45;;;;;;;6.27;5.77;;;;;;;20.82;80.64;99313.56;5113861;28;20273;-73
2023/06/19 01:04:13;;;;;;;6.27;5.80;;;;;;;20.79;80.54;99308.72;5114045;28;20661;-73
2023/06/19 01:06:47;;;;;;;5.50;5.10;;;;;;;20.74;80.37;99313.28;5113898;28;20719;-73
2023/06/19 01:09:18;;;;;;;6.73;6.33;;;;;;;20.70;80.97;99313.00;5114359;28;20182;-72
2023/06/19 01:11:49;;;;;;;6.33;5.67;;;;;;;20.69;80.91;99310.59;5114337;28;20270;-72
2023/06/19 01:14:20;;;;;;;7.20;6.50;;;;;;;20.68;80.79;99301.66;5113835;28;20187;-72
2023/06/19 01:16:47;;;;;;;6.27;5.77;;;;;;;20.65;80.70;99312.97;5113806;28;20654;-72
2023/06/19 01:19:19;;;;;;;5.83;5.50;;;;;;;20.67;80.69;99310.03;5113991;28;20225;-72
2023/06/19 01:21:46;;;;;;;6.23;5.90;;;;;;;20.65;80.45;99306.78;5114316;28;20183;-72
2023/06/19 01:24:15;;;;;;;5.87;5.33;;;;;;;20.62;80.51;99308.09;5113568;28;20277;-73
2023/06/19 01:26:45;;;;;;;6.30;5.80;;;;;;;20.57;80.87;99308.09;5114055;28;20222;-72
2023/06/19 01:29:14;;;;;;;6.10;5.50;;;;;;;20.58;80.83;99309.72;5113527;28;20236;-72
2023/06/19 01:31:48;;;;;;;5.80;5.60;;;;;;;20.52;80.91;99308.09;5113155;28;20678;-72
2023/06/19 01:34:18;;;;;;;6.03;5.73;;;;;;;20.51;80.97;99307.25;5113321;28;20186;-72
2023/06/19 01:36:46;;;;;;;6.03;5.70;;;;;;;20.53;80.70;99304.31;5113667;28;20578;-72
2023/06/19 01:39:14;;;;;;;5.97;5.60;;;;;;;20.50;80.68;99299.47;5113304;28;20742;-72
2023/06/19 01:41:41;;;;;;;5.67;5.37;;;;;;;20.45;81.12;99307.50;5114043;28;20558;-72
2023/06/19 01:44:09;;;;;;;8.40;5.73;;;;;;;20.48;80.83;99307.00;5113215;28;20226;-72
2023/06/19 01:46:36;;;;;;;5.53;5.10;;;;;;;20.49;80.91;99297.81;5113447;28;20279;-72
2023/06/19 01:49:06;;;;;;;6.23;5.70;;;;;;;20.47;80.79;99300.78;5113609;28;20617;-73
2023/06/19 01:51:33;;;;;;;5.30;5.07;;;;;;;20.49;80.61;99295.13;5113264;28;20183;-72
2023/06/19 01:54:00;;;;;;;5.80;5.50;;;;;;;20.55;80.51;99297.56;5113366;28;20194;-73
2023/06/19 01:56:28;;;;;;;9.60;6.40;;;;;;;20.57;80.32;99300.00;5112986;28;20247;-72
2023/06/19 01:58:55;;;;;;;6.20;5.60;;;;;;;20.49;80.45;99298.63;5113091;28;20661;-72
2023/06/19 02:01:22;;;;;;;6.47;5.73;;;;;;;20.50;80.46;99296.75;5113204;28;20301;-72
2023/06/19 02:03:49;;;;;;;6.10;5.70;;;;;;;20.44;80.40;99295.09;5112972;28;20187;-72
2023/06/19 02:06:16;;;;;;;5.80;5.27;;;;;;;20.53;80.26;99298.91;5113028;28;20214;-71
2023/06/19 02:08:42;;;;;;;6.40;5.97;;;;;;;20.47;80.23;99294.56;5113554;28;20607;-71
2023/06/19 02:11:09;;;;;;;6.60;5.40;;;;;;;20.48;80.04;99297.03;5113085;28;20191;-72
2023/06/19 02:13:37;;;;;;;6.20;5.70;;;;;;;20.49;80.10;99300.50;5112243;28;20195;-71
2023/06/19 02:16:04;;;;;;;6.13;5.63;;;;;;;20.42;80.04;99286.47;5112883;28;20198;-72
2023/06/19 02:18:30;;;;;;;5.63;5.27;;;;;;;20.47;80.02;99305.38;5112718;28;20228;-71
2023/06/19 02:20:57;;;;;;;7.67;5.60;;;;;;;20.50;79.67;99305.66;5112970;28;20191;-71
2023/06/19 02:23:24;;;;;;;5.53;5.17;;;;;;;20.54;79.55;99308.63;5112625;28;20738;-71
2023/06/19 02:25:51;;;;;;;6.07;5.50;;;;;;;20.55;79.49;99321.06;5112899;28;20226;-71
2023/06/19 02:28:18;;;;;;;6.13;5.70;;;;;;;20.56;79.61;99319.97;5112583;28;20240;-71
2023/06/19 02:30:46;;;;;;;5.57;5.30;;;;;;;20.59;78.97;99325.63;5112115;28;20666;-71
2023/06/19 02:33:14;;;;;;;10.33;6.17;;;;;;;20.65;78.92;99322.97;5112464;28;20191;-71
2023/06/19 02:35:41;;;;;;;6.20;5.50;;;;;;;20.59;79.15;99333.75;5112686;28;20289;-71
2023/06/19 02:38:08;;;;;;;6.00;5.70;;;;;;;20.63;78.99;99324.03;5112794;28;20243;-71
2023/06/19 02:40:35;;;;;;;6.00;5.30;;;;;;;20.59;78.95;99319.44;5112819;28;20287;-71
2023/06/19 02:43:01;;;;;;;6.43;5.10;;;;;;;20.56;79.04;99325.38;5112720;28;20195;-71
2023/06/19 02:45:28;;;;;;;5.53;5.17;;;;;;;20.59;78.85;99331.03;5112198;28;20222;-71
2023/06/19 02:47:56;;;;;;;6.27;5.67;;;;;;;20.59;78.73;99314.06;5112758;28;20205;-71
2023/06/19 02:50:23;;;;;;;5.97;5.50;;;;;;;20.59;78.70;99325.63;5112171;28;20936;-71
2023/06/19 02:52:50;;;;;;;6.80;5.30;;;;;;;20.67;78.18;99327.03;5112286;28;20190;-71
2023/06/19 02:55:16;;;;;;;6.17;5.77;;;;;;;20.61;78.17;99328.09;5112131;28;20197;-71
2023/06/19 02:57:44;;;;;;;7.27;5.33;;;;;;;20.66;78.00;99328.09;5112537;28;20240;-71
2023/06/19 03:00:12;;;;;;;6.47;5.33;;;;;;;20.75;77.47;99333.81;5112523;28;20186;-70
2023/06/19 03:02:42;;;;;;;5.27;4.77;;;;;;;20.74;77.27;99337.59;5112199;28;20654;-71
2023/06/19 03:05:15;;;;;;;5.73;5.20;;;;;;;20.74;77.26;99330.28;5111934;28;20266;-71
2023/06/19 03:07:42;;;;;;;6.03;5.47;;;;;;;20.88;76.88;99331.41;5112457;28;20193;-71
2023/06/19 03:10:09;;;;;;;7.73;5.40;;;;;;;20.92;76.97;99329.00;5112370;28;20240;-71
2023/06/19 03:12:36;;;;;;;5.70;5.30;;;;;;;21.00;76.40;99332.03;5112438;28;20195;-71
2023/06/19 03:15:03;;;;;;;5.73;5.20;;;;;;;21.25;75.53;99332.06;5112359;28;20195;-71
2023/06/19 03:17:30;;;;;;;6.43;5.67;;;;;;;21.40;74.94;99332.03;5112339;28;20255;-70
2023/06/19 03:19:57;;;;;;;9.30;5.40;;;;;;;21.24;75.46;99335.84;5112010;28;20190;-71
2023/06/19 03:22:25;;;;;;;5.83;5.37;;;;;;;21.20;76.11;99337.47;5111865;28;20673;-71
2023/06/19 03:24:52;;;;;;;5.77;5.23;;;;;;;21.16;76.08;99336.38;5112582;28;20216;-72
2023/06/19 03:27:19;;;;;;;6.30;5.70;;;;;;;21.05;76.90;99334.72;5116097;28;20215;-71
2023/06/19 03:29:45;;;;;;;6.57;5.20;;;;;;;21.17;76.39;99343.41;5115913;28;20670;-72
2023/06/19 03:32:12;;;;;;;8.83;5.60;;;;;;;21.08;76.68;99347.69;5116219;28;20299;-72
2023/06/19 03:34:39;;;;;;;6.73;6.07;;;;;;;21.14;76.69;99343.91;5116243;28;20187;-72
2023/06/19 03:37:06;;;;;;;7.40;5.90;;;;;;;21.02;76.79;99339.88;5116098;28;20198;-72
2023/06/19 03:39:34;;;;;;;6.63;5.83;;;;;;;21.01;76.90;99338.22;5116129;28;20190;-72
2023/06/19 03:42:01;;;;;;;6.00;5.47;;;;;;;21.18;76.31;99345.00;5115870;28;20248;-72
2023/06/19 03:44:28;;;;;;;9.10;5.20;;;;;;;21.44;75.45;99338.53;5115999;28;20237;-70
2023/06/19 03:46:54;;;;;;;6.30;5.33;;;;;;;21.70;75.03;99352.88;5115410;28;20222;-71
2023/06/19 03:49:21;;;;;;;6.53;5.40;;;;;;;21.84;74.04;99354.78;5115571;28;20248;-71
2023/06/19 03:51:48;;;;;;;5.93;5.53;;;;;;;22.00;73.15;99345.56;5115751;28;20267;-71
2023/06/19 03:54:16;;;;;;;5.83;5.40;;;;;;;21.90;73.66;99347.47;5115768;28;20187;-70
2023/06/19 03:56:44;;;;;;;5.60;5.20;;;;;;;21.88;73.68;99355.88;5115630;28;20199;-71
2023/06/19 03:59:11;;;;;;;5.67;5.37;;;;;;;21.83;74.08;99347.75;5115334;28;20600;-72
2023/06/19 04:01:37;;;;;;;8.10;5.63;;;;;;;21.83;74.17;99350.47;5115542;28;20326;-72
2023/06/19 04:04:04;;;;;;;11.70;6.13;;;;;;;22.32;72.58;99346.03;5115626;28;20252;-70
2023/06/19 04:06:31;;;;;;;12.20;6.33;;;;;;;23.14;69.61;99354.34;5114982;28;20214;-70
2023/06/19 04:08:58;;;;;;;10.20;6.37;;;;;;;23.70;68.04;99358.31;5115575;28;20244;-70
2023/06/19 04:11:24;;;;;;;19.53;6.17;;;;;;;24.38;65.12;99364.44;5115419;28;20245;-70
2023/06/19 04:13:52;;;;;;;6.67;6.10;;;;;;;24.82;63.20;99363.13;5115129;28;20193;-69
2023/06/19 04:16:19;;;;;;;6.40;5.80;;;;;;;25.21;61.57;99345.72;5115296;28;20196;-70
2023/06/19 04:18:46;;;;;;;12.07;6.13;;;;;;;25.51;60.69;99356.19;5115258;28;20250;-70
2023/06/19 04:21:12;;;;;;;12.93;6.20;;;;;;;25.96;59.69;99358.16;5114807;28;20832;-70
2023/06/19 04:23:39;;;;;;;13.43;6.80;;;;;;;26.25;57.19;99350.56;5115096;28;20673;-70
2023/06/19 04:26:06;;;;;;;8.40;5.53;;;;;;;26.60;56.51;99369.75;5114983;28;20234;-71
2023/06/19 04:28:32;;;;;;;6.97;5.63;;;;;;;26.96;55.14;99367.09;5115253;28;20207;-71
2023/06/19 04:31:01;;;;;;;5.70;5.10;;;;;;;27.30;54.28;99378.34;5114484;28;20255;-71
2023/06/19 04:33:28;;;;;;;9.53;5.37;;;;;;;27.53;53.19;99380.00;5114945;28;20194;-70
2023/06/19 04:35:54;;;;;;;6.37;4.90;;;;;;;28.07;51.59;99385.22;5115035;28;20351;-71
2023/06/19 04:38:23;;;;;;;13.70;5.20;;;;;;;28.11;52.07;99384.28;5113854;28;20190;-70
2023/06/19 04:40:50;;;;;;;4.90;4.53;;;;;;;29.01;48.71;99391.94;5115106;28;20191;-70
2023/06/19 04:43:17;;;;;;;6.23;4.50;;;;;;;29.08;47.72;99392.28;5114230;28;20653;-71
2023/06/19 04:45:44;;;;;;;5.13;4.53;;;;;;;29.42;46.95;99392.31;5114342;28;20230;-70
2023/06/19 04:48:12;;;;;;;5.17;4.70;;;;;;;29.75;45.38;99400.84;5114411;28;20190;-71
2023/06/19 04:50:39;;;;;;;5.40;4.77;;;;;;;29.95;45.04;99381.81;5114298;28;20216;-71
2023/06/19 04:53:05;;;;;;;7.13;4.73;;;;;;;30.15;44.25;99381.16;5114381;28;20194;-71
2023/06/19 04:55:32;;;;;;;12.73;5.13;;;;;;;30.36;44.57;99370.28;5114271;28;20249;-69
2023/06/19 04:57:59;;;;;;;15.33;5.43;;;;;;;30.97;41.94;99384.22;5114321;28;20251;-70
2023/06/19 05:00:26;;;;;;;5.80;4.87;;;;;;;31.24;41.08;99383.72;5114311;28;20282;-70
2023/06/19 05:02:53;;;;;;;14.47;6.40;;;;;;;31.20;41.49;99380.00;5113841;28;20277;-70
2023/06/19 05:05:21;;;;;;;6.87;4.67;;;;;;;31.25;41.36;99377.13;5114048;28;20255;-70
2023/06/19 05:07:48;;;;;;;6.77;4.70;;;;;;;30.95;41.38;99375.50;5113960;28;20222;-70
2023/06/19 05:10:15;;;;;;;8.60;4.63;;;;;;;30.99;41.20;99370.94;5113778;28;20615;-70
2023/06/19 05:12:41;;;;;;;12.33;5.07;;;;;;;31.46;40.61;99375.16;5114078;28;20244;-70
2023/06/19 05:15:09;;;;;;;6.83;4.97;;;;;;;31.39;39.83;99379.59;5113797;28;20248;-71
2023/06/19 05:17:38;;;;;;;7.27;4.70;;;;;;;31.46;39.90;99386.16;5113842;28;20708;-71
2023/06/19 05:20:07;;;;;;;4.97;4.57;;;;;;;31.88;39.62;99376.75;5113516;28;20186;-71
2023/06/19 05:22:36;;;;;;;17.07;5.17;;;;;;;31.73;39.76;99385.56;5113668;28;20191;-70
2023/06/19 05:25:03;;;;;;;7.83;4.77;;;;;;;31.62;39.52;99383.59;5113759;28;20194;-71
2023/06/19 05:27:30;;;;;;;5.83;4.43;;;;;;;31.75;39.64;99382.50;5113962;28;20223;-70
2023/06/19 05:29:56;;;;;;;5.33;4.80;;;;;;;32.17;38.65;99384.84;5113210;28;20247;-70
2023/06/19 05:32:23;;;;;;;9.13;5.00;;;;;;;32.39;38.34;99387.22;5113449;28;20638;-70
2023/06/19 05:34:50;;;;;;;9.17;4.40;;;;;;;32.00;38.90;99382.28;5113744;28;20235;-71
2023/06/19 05:37:17;;;;;;;10.53;4.50;;;;;;;32.11;38.84;99380.72;5113296;28;20198;-71
2023/06/19 05:39:45;;;;;;;5.07;4.10;;;;;;;32.52;37.97;99380.59;5113093;28;20190;-70
2023/06/19 05:42:12;;;;;;;5.07;4.03;;;;;;;32.42;37.63;99380.22;5113364;28;20194;-71
2023/06/19 05:44:40;;;;;;;4.37;4.17;;;;;;;31.58;39.12;99377.97;5112687;28;20194;-70
2023/06/19 05:47:07;;;;;;;7.27;4.67;;;;;;;31.73;39.55;99380.06;5112771;28;20245;-71
2023/06/19 05:49:33;;;;;;;6.50;4.80;;;;;;;31.81;38.86;99376.47;5112533;28;20187;-71
2023/06/19 05:52:00;;;;;;;4.70;4.17;;;;;;;31.55;39.12;99375.88;5112711;28;20244;-72
2023/06/19 05:54:27;;;;;;;5.83;4.90;;;;;;;31.45;39.55;99384.56;5113389;28;20658;-70
2023/06/19 05:56:55;;;;;;;5.50;4.60;;;;;;;31.25;39.81;99382.59;5113335;28;20247;-71
2023/06/19 05:59:22;;;;;;;7.97;4.70;;;;;;;31.37;40.22;99384.59;5113039;28;20658;-71
2023/06/19 06:01:50;;;;;;;5.47;4.93;;;;;;;31.50;39.56;99384.34;5112861;28;20678;-71
2023/06/19 06:04:17;;;;;;;4.47;4.27;;;;;;;31.38;39.93;99370.56;5112603;28;20702;-71
2023/06/19 06:06:44;;;;;;;6.13;5.17;;;;;;;31.38;40.14;99383.47;5113147;28;20361;-71
2023/06/19 06:09:11;;;;;;;6.60;4.60;;;;;;;31.46;39.84;99383.41;5112952;28;20187;-71
2023/06/19 06:11:38;;;;;;;18.83;6.00;;;;;;;31.50;40.20;99376.09;5111568;28;20190;-76
2023/06/19 06:14:07;;;;;;;4.97;4.47;;;;;;;31.25;39.59;99382.59;5112648;28;20724;-73
2023/06/19 06:16:33;;;;;;;8.27;4.50;;;;;;;30.80;40.26;99380.75;5112882;28;20259;-77
2023/06/19 06:19:00;;;;;;;4.87;4.47;;;;;;;30.58;40.58;99379.06;5112401;28;20239;-71
2023/06/19 06:21:27;;;;;;;4.60;4.30;;;;;;;30.91;39.89;99382.00;5112949;28;20256;-71
2023/06/19 06:23:54;;;;;;;5.03;4.27;;;;;;;30.89;39.02;99376.84;5112390;28;20240;-69
2023/06/19 06:26:21;;;;;;;4.73;4.43;;;;;;;30.93;39.25;99375.03;5112106;28;20197;-72
2023/06/19 06:28:48;;;;;;;8.23;4.80;;;;;;;30.84;38.85;99379.78;5113025;28;20294;-70
2023/06/19 06:31:16;;;;;;;7.80;4.57;;;;;;;31.01;39.79;99379.66;5112554;28;20287;-71
2023/06/19 06:33:43;;;;;;;5.63;5.17;;;;;;;31.19;38.95;99375.66;5112689;28;20198;-70
2023/06/19 06:36:09;;;;;;;4.73;4.43;;;;;;;31.23;39.82;99371.13;5112442;28;20198;-70
2023/06/19 06:38:36;;;;;;;9.17;4.20;;;;;;;31.68;37.53;99379.50;5112723;28;20199;-70
2023/06/19 06:41:03;;;;;;;5.47;4.47;;;;;;;31.48;37.85;99383.06;5112126;28;20197;-70
2023/06/19 06:43:29;;;;;;;12.63;4.50;;;;;;;31.61;37.82;99385.53;5112630;28;20549;-70
2023/06/19 06:45:56;;;;;;;5.90;4.27;;;;;;;31.50;37.28;99387.09;5112420;28;20190;-70
2023/06/19 06:48:24;;;;;;;5.50;4.20;;;;;;;31.57;37.70;99381.06;5111168;28;20219;-70
2023/06/19 06:50:52;;;;;;;5.27;4.50;;;;;;;31.44;37.85;99376.66;5110286;28;20233;-70
2023/06/19 06:53:19;;;;;;;8.70;4.37;;;;;;;31.42;37.54;99385.22;5111732;28;20292;-70
2023/06/19 06:55:46;;;;;;;5.77;3.87;;;;;;;31.96;37.96;99384.09;5112124;28;20251;-70
2023/06/19 06:58:14;;;;;;;6.00;4.37;;;;;;;31.68;37.16;99374.00;5111755;28;20251;-70
2023/06/19 07:00:40;;;;;;;9.40;3.80;;;;;;;31.57;38.16;99376.38;5113785;28;20734;-70
2023/06/19 07:03:08;;;;;;;7.70;4.20;;;;;;;31.51;38.17;99385.13;5116633;28;20248;-70
2023/06/19 07:05:36;;;;;;;5.33;4.63;;;;;;;31.43;38.06;99383.25;5116179;28;20240;-70
2023/06/19 07:08:03;;;;;;;8.07;4.40;;;;;;;31.36;38.70;99383.78;5116540;28;20294;-70
2023/06/19 07:10:30;;;;;;;5.30;4.03;;;;;;;31.47;38.04;99381.44;5116351;28;20281;-70
2023/06/19 07:12:57;;;;;;;6.70;4.20;;;;;;;31.36;38.82;99381.03;5116230;28;20662;-71
2023/06/19 07:15:23;;;;;;;4.90;4.23;;;;;;;31.08;38.47;99388.19;5116530;28;20255;-70
2023/06/19 07:17:50;;;;;;;4.73;4.20;;;;;;;31.11;38.90;99390.25;5116113;28;20255;-71
2023/06/19 07:20:17;;;;;;;7.73;4.53;;;;;;;30.92;37.92;99387.16;5116416;28;20191;-70
2023/06/19 07:22:45;;;;;;;5.33;3.87;;;;;;;31.03;38.49;99388.34;5116657;28;20190;-70
2023/06/19 07:25:13;;;;;;;9.13;4.37;;;;;;;30.92;37.72;99381.66;5115922;28;20191;-70
2023/06/19 07:27:41;;;;;;;4.27;4.03;;;;;;;30.84;38.40;99379.78;5115726;28;20222;-70
2023/06/19 07:30:08;;;;;;;4.77;4.30;;;;;;;30.96;38.79;99388.09;5115498;28;20670;-71
2023/06/19 07:32:35;;;;;;;5.23;4.47;;;;;;;31.15;37.44;99395.88;5116073;28;20193;-70
2023/06/19 07:35:02;;;;;;;4.23;3.87;;;;;;;31.25;37.25;99388.09;5115925;28;20625;-70
2023/06/19 07:37:29;;;;;;;4.70;4.30;;;;;;;31.65;37.11;99389.19;5116122;28;20198;-71
2023/06/19 07:39:57;;;;;;;6.53;4.37;;;;;;;31.74;37.12;99398.19;5115546;28;20711;-70
2023/06/19 07:42:23;;;;;;;7.83;4.70;;;;;;;31.23;37.38;99382.13;5115456;28;20190;-69
2023/06/19 07:44:50;;;;;;;4.83;4.07;;;;;;;31.36;38.33;99385.75;5115402;28;20251;-70
2023/06/19 07:47:18;;;;;;;6.23;4.90;;;;;;;31.75;37.46;99383.31;5115634;28;20353;-70
2023/06/19 07:49:45;;;;;;;4.87;4.47;;;;;;;32.09;36.21;99393.97;5115222;28;20282;-70
2023/06/19 07:52:13;;;;;;;4.07;3.87;;;;;;;32.26;36.10;99388.28;5115482;28;20282;-71
2023/06/19 07:54:51;;;;;;;4.03;3.67;;;;;;;31.91;36.58;99387.06;5115777;28;20195;-71
2023/06/19 07:57:19;;;;;;;9.27;4.33;;;;;;;31.84;35.77;99396.97;5115739;28;20235;-71
2023/06/19 07:59:46;;;;;;;7.00;4.00;;;;;;;31.88;35.41;99397.91;5115542;28;20187;-71
2023/06/19 08:02:13;;;;;;;7.07;4.73;;;;;;;31.78;35.33;99399.16;5115484;28;20199;-71
2023/06/19 08:04:40;;;;;;;5.00;4.60;;;;;;;32.10;35.50;99401.06;5114973;28;20190;-71
2023/06/19 08:07:07;;;;;;;7.63;4.97;;;;;;;32.18;34.63;99402.94;5114840;28;20705;-71
2023/06/19 08:09:34;;;;;;;4.87;4.40;;;;;;;32.20;34.85;99400.66;5114857;28;20542;-71
2023/06/19 08:12:01;;;;;;;4.37;4.13;;;;;;;32.86;35.14;99402.16;5114001;28;20662;-71
2023/06/19 08:14:29;;;;;;;12.63;4.83;;;;;;;32.65;34.40;99412.44;5115152;28;20190;-71
2023/06/19 08:16:56;;;;;;;4.57;4.17;;;;;;;32.94;34.45;99404.00;5115007;28;20258;-71
2023/06/19 08:19:23;;;;;;;6.10;4.77;;;;;;;33.06;33.87;99401.25;5115152;28;20251;-71
2023/06/19 08:21:49;;;;;;;4.70;4.07;;;;;;;32.74;32.76;99398.56;5115032;28;20199;-71
2023/06/19 08:24:17;;;;;;;5.53;4.43;;;;;;;32.68;33.96;99406.28;5114696;28;20191;-71
2023/06/19 08:26:43;;;;;;;4.57;4.20;;;;;;;32.15;34.93;99400.06;5114923;28;20199;-71
2023/06/19 08:29:10;;;;;;;14.23;4.53;;;;;;;32.14;34.64;99403.97;5114702;28;20226;-71
2023/06/19 08:31:38;;;;;;;3.77;3.57;;;;;;;32.11;34.18;99386.22;5113810;28;20226;-71
2023/06/19 08:34:07;;;;;;;4.55;4.15;;;;;;;32.28;34.45;99407.19;5114443;28;20256;-72
2023/06/19 08:36:34;;;;;;;7.07;4.53;;;;;;;32.30;35.26;99405.75;5114267;28;20229;-71
2023/06/19 08:39:01;;;;;;;5.57;4.80;;;;;;;32.02;35.21;99402.00;5114731;28;20226;-71
2023/06/19 08:41:28;;;;;;;5.43;4.07;;;;;;;31.93;34.98;99397.72;5114538;28;20201;-72
2023/06/19 08:43:55;;;;;;;8.20;4.27;;;;;;;31.99;35.56;99391.69;5114673;28;20194;-71
2023/06/19 08:46:22;;;;;;;9.10;4.47;;;;;;;31.88;36.03;99398.72;5114410;28;20556;-71
2023/06/19 08:48:50;;;;;;;4.93;4.20;;;;;;;32.22;35.08;99405.81;5114563;28;20214;-72
2023/06/19 08:51:17;;;;;;;8.07;5.00;;;;;;;32.37;34.27;99405.19;5114353;28;20191;-71
2023/06/19 08:53:50;;;;;;;6.23;4.80;;;;;;;32.07;34.41;99404.53;5114630;28;20255;-71
2023/06/19 08:56:17;;;;;;;5.13;4.70;;;;;;;32.10;34.12;99395.59;5114565;28;20235;-72
2023/06/19 08:58:43;;;;;;;4.30;4.10;;;;;;;32.13;34.39;99394.91;5114196;28;20662;-71
2023/06/19 09:01:10;;;;;;;8.53;4.73;;;;;;;32.36;33.90;99401.66;5114354;28;20194;-71
2023/06/19 09:03:37;;;;;;;4.87;4.37;;;;;;;32.31;34.01;99393.63;5114191;28;20219;-71
2023/06/19 09:06:07;;;;;;;4.83;4.50;;;;;;;32.22;33.40;99392.88;5113911;28;20732;-72
2023/06/19 09:08:34;;;;;;;4.93;4.30;;;;;;;32.42;34.11;99399.47;5114515;28;20206;-71
2023/06/19 09:11:03;;;;;;;4.50;4.03;;;;;;;32.56;33.83;99397.19;5113495;28;20678;-72
2023/06/19 09:13:30;;;;;;;5.93;4.57;;;;;;;32.43;33.95;99390.91;5113772;28;20746;-71
2023/06/19 09:16:02;;;;;;;4.40;4.17;;;;;;;32.46;33.86;99390.19;5114016;28;20187;-72
2023/06/19 09:18:30;;;;;;;17.47;5.90;;;;;;;32.45;34.08;99396.84;5113907;28;20191;-71
2023/06/19 09:20:57;;;;;;;9.93;5.17;;;;;;;32.52;34.32;99377.81;5113680;28;20197;-71
2023/06/19 09:23:25;;;;;;;4.87;4.40;;;;;;;32.50;34.00;99374.59;5113493;28;20190;-71
2023/06/19 09:25:54;;;;;;;10.40;4.83;;;;;;;32.58;33.28;99378.41;5113623;28;20631;-71
2023/06/19 09:28:22;;;;;;;4.77;4.20;;;;;;;32.58;34.67;99372.91;5113855;28;20225;-71
2023/06/19 09:30:56;;;;;;;5.13;4.27;;;;;;;32.44;34.63;99367.75;5113709;28;20222;-71
2023/06/19 09:33:24;;;;;;;4.43;4.10;;;;;;;32.94;32.99;99373.72;5113513;28;20182;-72
2023/06/19 09:35:51;;;;;;;4.57;4.30;;;;;;;33.11;32.61;99370.72;5113363;28;20198;-73
2023/06/19 09:38:19;;;;;;;4.43;4.13;;;;;;;33.15;32.87;99359.78;5113601;28;20674;-72
2023/06/19 09:40:48;;;;;;;4.38;3.97;;;;;;;32.84;32.13;99348.63;5113066;28;20553;-70
2023/06/19 09:43:22;;;;;;;5.57;4.15;;;;;;;32.84;32.76;99354.94;5113472;28;20244;-70
2023/06/19 09:45:51;;;;;;;4.43;4.23;;;;;;;32.82;32.93;99351.72;5112965;28;20238;-70
2023/06/19 09:48:23;;;;;;;5.82;4.25;;;;;;;33.18;31.98;99354.41;5113015;28;20264;-70
2023/06/19 09:50:52;;;;;;;4.93;4.22;;;;;;;33.39;32.66;99348.75;5113444;28;20187;-70
2023/06/19 09:53:20;;;;;;;4.25;3.78;;;;;;;33.32;31.12;99353.25;5112852;28;20281;-70
2023/06/19 09:55:51;;;;;;;4.20;3.85;;;;;;;33.17;32.16;99341.78;5113231;28;20278;-70
2023/06/19 09:58:19;;;;;;;28.88;5.32;;;;;;;33.16;31.58;99347.66;5113011;28;20187;-70
2023/06/19 10:00:49;;;;;;;4.60;3.90;;;;;;;33.53;31.53;99353.88;5112579;28;20194;-70
2023/06/19 10:03:16;;;;;;;4.00;3.60;;;;;;;33.25;31.07;99338.09;5112631;28;20190;-70
2023/06/19 10:05:44;;;;;;;4.82;4.40;;;;;;;33.26;31.79;99347.97;5112654;28;20225;-71
2023/06/19 10:08:10;;;;;;;3.70;3.50;;;;;;;33.14;30.92;99347.19;5112930;28;20225;-70
2023/06/19 10:10:46;;;;;;;5.82;4.05;;;;;;;33.54;31.06;99338.94;5112599;28;20746;-70
2023/06/19 10:13:16;;;;;;;5.32;3.88;;;;;;;33.71;31.13;99338.66;5113050;28;20255;-70
2023/06/19 10:15:44;;;;;;;6.70;4.72;;;;;;;33.80;30.71;99320.78;5112504;28;20631;-70
2023/06/19 10:18:16;;;;;;;5.72;3.90;;;;;;;33.07;31.35;99336.75;5112768;28;20198;-70
2023/06/19 10:20:43;;;;;;;4.47;4.28;;;;;;;32.87;32.00;99326.69;5112931;28;20199;-70
2023/06/19 10:23:16;;;;;;;5.82;4.18;;;;;;;33.19;32.55;99311.94;5112779;28;20205;-70
2023/06/19 10:25:44;;;;;;;10.70;4.63;;;;;;;33.16;31.28;99323.66;5112758;28;20240;-70
2023/06/19 10:28:19;;;;;;;10.75;4.95;;;;;;;32.81;31.58;99319.03;5112531;28;20313;-70
2023/06/19 10:30:46;;;;;;;4.90;4.50;;;;;;;32.95;32.40;99316.72;5112625;28;20222;-70
2023/06/19 10:33:13;;;;;;;24.90;5.47;;;;;;;33.20;31.76;99316.28;5112191;28;20607;-70
2023/06/19 10:35:40;;;;;;;4.43;4.13;;;;;;;33.18;31.44;99320.56;5111645;28;20195;-70
2023/06/19 10:38:08;;;;;;;7.95;4.05;;;;;;;33.06;31.98;99317.81;5112235;28;20289;-71
2023/06/19 10:40:37;;;;;;;5.75;4.07;;;;;;;33.12;31.81;99311.72;5112096;28;20191;-71
2023/06/19 10:43:04;;;;;;;10.02;4.15;;;;;;;33.09;32.37;99300.63;5112260;28;20191;-72
2023/06/19 10:45:32;;;;;;;6.35;4.50;;;;;;;33.68;31.83;99300.75;5112232;28;20281;-71
2023/06/19 10:48:02;;;;;;;7.28;4.05;;;;;;;33.67;31.14;99310.97;5112184;28;20218;-71
2023/06/19 10:50:28;;;;;;;6.45;3.75;;;;;;;33.39;31.64;99293.66;5112036;28;20230;-70
2023/06/19 10:52:58;;;;;;;4.07;3.67;;;;;;;33.74;30.64;99288.31;5112130;28;20259;-70
2023/06/19 10:55:25;;;;;;;4.93;4.28;;;;;;;33.75;31.41;99298.19;5112020;28;20384;-71
2023/06/19 10:57:52;;;;;;;5.07;4.50;;;;;;;34.11;31.23;99292.47;5112205;28;20186;-70
2023/06/19 11:00:28;;;;;;;4.35;3.92;;;;;;;34.11;31.31;99281.44;5111853;28;20194;-71
2023/06/19 11:02:56;;;;;;;10.88;3.95;;;;;;;34.34;31.08;99290.72;5111776;28;20191;-71
2023/06/19 11:05:23;;;;;;;78.50;9.95;;;;;;;34.65;30.98;99285.13;5111652;28;20240;-70
2023/06/19 11:07:54;;;;;;;5.70;3.92;;;;;;;34.83;30.43;99280.88;5112191;28;20190;-71
2023/06/19 11:10:22;;;;;;;4.18;3.83;;;;;;;34.97;29.99;99281.16;5111918;28;20198;-71
2023/06/19 11:12:49;;;;;;;13.98;4.50;;;;;;;35.05;30.36;99280.97;5112129;28;20187;-70
2023/06/19 11:15:16;;;;;;;12.93;4.13;;;;;;;35.03;28.66;99280.50;5111578;28;20193;-71
2023/06/19 11:17:43;;;;;;;5.63;3.50;;;;;;;34.57;29.60;99266.84;5111771;28;20681;-71
2023/06/19 11:20:13;;;;;;;5.65;3.78;;;;;;;34.20;30.21;99273.78;5112033;28;20202;-73
2023/06/19 11:22:41;;;;;;;3.53;3.33;;;;;;;34.28;29.74;99272.78;5111955;28;20233;-71
2023/06/19 11:25:10;;;;;;;5.78;3.83;;;;;;;34.46;30.50;99276.81;5111753;28;20195;-71
2023/06/19 11:27:39;;;;;;;5.82;4.22;;;;;;;33.89;31.07;99268.28;5112093;28;20194;-71
2023/06/19 11:30:07;;;;;;;4.95;4.10;;;;;;;33.64;31.17;99266.78;5111852;28;20279;-71
2023/06/19 11:32:40;;;;;;;3.80;3.55;;;;;;;33.33;31.98;99257.28;5112136;28;20195;-70